Time;durP1;ratioP1;P1;durP2;ratioP2;P2;SDS_P1;SDS_P2;PMS_P1;PMS_P2;Temp;Humidity;BMP_temperature;BMP_pressure;BME280_temperature;BME280_humidity;BME280_pressure;Samples;Min_cycle;Max_cycle;Signal;HPM_P1;HPM_P2
2023/06/14 00:00:31;;;;;;;6.70;2.20;;;;;;;;;;4940075;28;20046;-76
2023/06/14 00:02:56;;;;;;;6.68;2.50;;;;;;;;;;4943234;28;20039;-77
2023/06/14 00:05:23;;;;;;;2.53;2.00;;;;;;;;;;4944510;28;20133;-77
2023/06/14 00:07:49;;;;;;;3.08;1.92;;;;;;;;;;4950715;28;20523;-76
2023/06/14 00:10:14;;;;;;;2.50;2.08;;;;;;;;;;4940767;28;20041;-77
2023/06/14 00:12:41;;;;;;;6.68;2.20;;;;;;;;;;4933465;28;20047;-78
2023/06/14 00:15:07;;;;;;;2.28;2.05;;;;;;;;;;4949362;28;20050;-77
2023/06/14 00:17:32;;;;;;;4.05;2.70;;;;;;;;;;4956790;28;20035;-77
2023/06/14 00:19:59;;;;;;;4.60;2.47;;;;;;;;;;4924518;28;20057;-76
2023/06/14 00:22:25;;;;;;;4.68;2.60;;;;;;;;;;4943128;28;20042;-75
2023/06/14 00:24:51;;;;;;;3.05;2.15;;;;;;;;;;4937173;28;20031;-76
2023/06/14 00:27:16;;;;;;;3.58;2.25;;;;;;;;;;4947947;28;20034;-75
2023/06/14 00:29:42;;;;;;;4.75;2.13;;;;;;;;;;4941512;28;20042;-76
2023/06/14 00:32:07;;;;;;;3.08;2.00;;;;;;;;;;4942085;28;20424;-76
2023/06/14 00:34:33;;;;;;;2.65;2.40;;;;;;;;;;4940588;28;20105;-76
2023/06/14 00:36:59;;;;;;;2.67;2.30;;;;;;;;;;4922576;28;20975;-76
2023/06/14 00:39:25;;;;;;;2.60;2.30;;;;;;;;;;4946440;28;20046;-76
2023/06/14 00:41:50;;;;;;;2.88;2.22;;;;;;;;;;4931353;28;20403;-75
2023/06/14 00:44:17;;;;;;;3.72;2.30;;;;;;;;;;4947090;28;20047;-76
2023/06/14 00:46:43;;;;;;;5.38;2.30;;;;;;;;;;4933985;28;20055;-76
2023/06/14 00:49:10;;;;;;;3.95;2.15;;;;;;;;;;4937087;28;20046;-76
2023/06/14 00:51:35;;;;;;;5.15;2.40;;;;;;;;;;4941957;28;20070;-75
2023/06/14 00:54:01;;;;;;;2.47;2.17;;;;;;;;;;4947494;28;20073;-75
2023/06/14 00:56:27;;;;;;;3.50;2.55;;;;;;;;;;4951893;28;20039;-75
2023/06/14 00:58:53;;;;;;;2.67;2.15;;;;;;;;;;4945570;28;20046;-75
2023/06/14 01:01:18;;;;;;;2.10;1.90;;;;;;;;;;4937201;28;20043;-75
2023/06/14 01:03:44;;;;;;;4.30;2.47;;;;;;;;;;4932770;28;20039;-75
2023/06/14 01:06:30;;;;;;;2.80;2.30;;;;;;;;;;4939710;28;20054;-75
2023/06/14 01:09:27;;;;;;;3.05;2.05;;;;;;;;;;4950843;28;20098;-76
2023/06/14 01:12:07;;;;;;;2.95;2.22;;;;;;;;;;4933176;28;20129;-74
2023/06/14 01:14:33;;;;;;;3.72;2.40;;;;;;;;;;4952267;28;20031;-75
2023/06/14 01:17:00;;;;;;;2.25;2.05;;;;;;;;;;4915161;28;20052;-75
2023/06/14 01:19:27;;;;;;;5.18;2.25;;;;;;;;;;4951192;28;20046;-75
2023/06/14 01:21:56;;;;;;;2.75;2.25;;;;;;;;;;4950186;28;20940;-75
2023/06/14 01:24:25;;;;;;;1.90;1.70;;;;;;;;;;4935730;28;20035;-75
2023/06/14 01:26:55;;;;;;;3.45;2.20;;;;;;;;;;4934597;28;20483;-75
2023/06/14 01:29:22;;;;;;;2.40;2.13;;;;;;;;;;4937215;28;20042;-75
2023/06/14 01:31:48;;;;;;;3.63;2.20;;;;;;;;;;4945513;28;20039;-75
2023/06/14 01:34:14;;;;;;;2.45;2.00;;;;;;;;;;4947010;28;20463;-76
2023/06/14 01:36:43;;;;;;;4.03;2.17;;;;;;;;;;4922952;28;20058;-75
2023/06/14 01:39:12;;;;;;;3.47;2.17;;;;;;;;;;4948982;28;20096;-75
2023/06/14 01:41:38;;;;;;;2.00;1.83;;;;;;;;;;4941574;28;20094;-76
2023/06/14 01:44:05;;;;;;;3.45;2.30;;;;;;;;;;4935296;28;20085;-75
2023/06/14 01:46:30;;;;;;;2.85;2.15;;;;;;;;;;4941129;28;20226;-75
2023/06/14 01:48:56;;;;;;;3.30;2.10;;;;;;;;;;4939255;28;20108;-75
2023/06/14 01:51:21;;;;;;;3.58;2.45;;;;;;;;;;4945590;28;20395;-75
2023/06/14 01:53:48;;;;;;;2.80;2.45;;;;;;;;;;4947198;28;20053;-75
2023/06/14 01:56:13;;;;;;;3.05;2.55;;;;;;;;;;4940318;28;20438;-75
2023/06/14 01:58:40;;;;;;;2.40;2.10;;;;;;;;;;4946116;28;20518;-76
2023/06/14 02:01:07;;;;;;;3.17;2.30;;;;;;;;;;4942531;28;20547;-76
2023/06/14 02:03:32;;;;;;;2.47;2.28;;;;;;;;;;4941669;28;20050;-76
2023/06/14 02:05:58;;;;;;;3.03;2.10;;;;;;;;;;4946322;28;20050;-75
2023/06/14 02:08:23;;;;;;;2.20;2.00;;;;;;;;;;4929926;28;20046;-76
2023/06/14 02:10:49;;;;;;;3.55;2.17;;;;;;;;;;4939566;28;20502;-76
2023/06/14 02:13:14;;;;;;;4.80;2.42;;;;;;;;;;4955280;28;20057;-75
2023/06/14 02:15:40;;;;;;;1.65;1.50;;;;;;;;;;4949204;28;20062;-76
2023/06/14 02:18:05;;;;;;;1.77;1.58;;;;;;;;;;4940253;28;20129;-76
2023/06/14 02:20:31;;;;;;;2.10;1.90;;;;;;;;;;4949226;28;20120;-75
2023/06/14 02:22:57;;;;;;;3.17;2.40;;;;;;;;;;4951621;28;20129;-74
2023/06/14 02:25:22;;;;;;;2.40;2.20;;;;;;;;;;4940075;28;20042;-73
2023/06/14 02:27:48;;;;;;;2.30;2.10;;;;;;;;;;4933865;28;20045;-74
2023/06/14 02:30:13;;;;;;;2.30;2.05;;;;;;;;;;4957193;28;20490;-74
2023/06/14 02:32:40;;;;;;;3.40;2.53;;;;;;;;;;4945052;28;20051;-75
2023/06/14 02:35:06;;;;;;;2.17;1.98;;;;;;;;;;4949187;28;20043;-74
2023/06/14 02:37:32;;;;;;;2.50;2.30;;;;;;;;;;4952807;28;20084;-75
2023/06/14 02:39:59;;;;;;;1.70;1.52;;;;;;;;;;4928709;28;20067;-75
2023/06/14 02:42:24;;;;;;;5.40;2.33;;;;;;;;;;4954009;28;20065;-75
2023/06/14 02:44:51;;;;;;;2.50;1.95;;;;;;;;;;4956002;28;20057;-75
2023/06/14 02:47:18;;;;;;;2.63;2.10;;;;;;;;;;4942208;28;20115;-74
2023/06/14 02:49:46;;;;;;;2.67;2.22;;;;;;;;;;4950360;28;20133;-74
2023/06/14 02:52:11;;;;;;;4.35;2.75;;;;;;;;;;4941839;28;20035;-75
2023/06/14 02:54:37;;;;;;;2.33;1.90;;;;;;;;;;4932990;28;20585;-73
2023/06/14 02:57:03;;;;;;;3.50;1.95;;;;;;;;;;4951280;28;20046;-74
2023/06/14 02:59:28;;;;;;;2.85;2.08;;;;;;;;;;4925591;28;20097;-73
2023/06/14 03:01:53;;;;;;;2.72;2.05;;;;;;;;;;4935157;28;20666;-74
2023/06/14 03:04:19;;;;;;;1.80;1.60;;;;;;;;;;4933041;28;20043;-75
2023/06/14 03:06:50;;;;;;;4.10;2.20;;;;;;;;;;4937585;28;20030;-74
2023/06/14 03:09:16;;;;;;;2.67;2.20;;;;;;;;;;4942112;28;20046;-74
2023/06/14 03:11:41;;;;;;;3.08;1.92;;;;;;;;;;4938726;28;20039;-76
2023/06/14 03:14:08;;;;;;;4.47;2.67;;;;;;;;;;4933909;28;20127;-74
2023/06/14 03:16:33;;;;;;;3.67;2.38;;;;;;;;;;4956264;28;20562;-75
2023/06/14 03:18:59;;;;;;;1.80;1.67;;;;;;;;;;4948996;28;20053;-75
2023/06/14 03:21:25;;;;;;;3.55;2.63;;;;;;;;;;4937583;28;20034;-76
2023/06/14 03:23:52;;;;;;;2.33;2.13;;;;;;;;;;4956949;28;20034;-75
2023/06/14 03:26:18;;;;;;;1.45;1.30;;;;;;;;;;4947870;28;20082;-75
2023/06/14 03:28:48;;;;;;;4.07;2.30;;;;;;;;;;4934674;28;20044;-76
2023/06/14 03:31:13;;;;;;;3.15;2.20;;;;;;;;;;4951886;28;20042;-76
2023/06/14 03:33:39;;;;;;;2.63;2.08;;;;;;;;;;4940895;28;20043;-77
2023/06/14 03:36:06;;;;;;;2.67;2.17;;;;;;;;;;4932961;28;20035;-76
2023/06/14 03:38:32;;;;;;;2.85;2.15;;;;;;;;;;4955092;28;20054;-75
2023/06/14 03:40:57;;;;;;;2.92;2.63;;;;;;;;;;4953581;28;20081;-75
2023/06/14 03:43:22;;;;;;;4.60;2.83;;;;;;;;;;4936751;28;20438;-77
2023/06/14 03:45:48;;;;;;;3.58;2.55;;;;;;;;;;4954418;28;20041;-75
2023/06/14 03:48:13;;;;;;;3.88;2.95;;;;;;;;;;4931178;28;20042;-74
2023/06/14 03:50:39;;;;;;;3.00;2.53;;;;;;;;;;4958244;28;20756;-74
2023/06/14 03:53:04;;;;;;;4.57;2.17;;;;;;;;;;4961791;28;20338;-74
2023/06/14 03:55:33;;;;;;;2.92;2.67;;;;;;;;;;4943506;28;20042;-75
2023/06/14 03:57:59;;;;;;;2.53;2.33;;;;;;;;;;4959894;28;20093;-74
2023/06/14 04:00:25;;;;;;;2.65;1.73;;;;;;;;;;4953006;28;20687;-75
2023/06/14 04:02:50;;;;;;;2.42;1.90;;;;;;;;;;4915968;28;20063;-74
2023/06/14 04:05:18;;;;;;;4.95;2.70;;;;;;;;;;4958190;28;20039;-74
2023/06/14 04:07:44;;;;;;;3.42;2.53;;;;;;;;;;4930731;28;20046;-73
2023/06/14 04:10:12;;;;;;;2.63;2.20;;;;;;;;;;4928459;28;20856;-75
2023/06/14 04:12:37;;;;;;;2.75;2.35;;;;;;;;;;4937431;28;20091;-74
2023/06/14 04:15:05;;;;;;;2.63;2.40;;;;;;;;;;4924113;28;20030;-74
2023/06/14 04:17:32;;;;;;;3.95;2.70;;;;;;;;;;4954070;28;20048;-75
2023/06/14 04:20:03;;;;;;;2.47;2.28;;;;;;;;;;4949351;28;20780;-75
2023/06/14 04:22:30;;;;;;;2.80;2.60;;;;;;;;;;4945054;28;20571;-75
2023/06/14 04:24:59;;;;;;;3.20;2.22;;;;;;;;;;4940930;28;20125;-75
2023/06/14 04:27:25;;;;;;;5.57;2.47;;;;;;;;;;4936885;28;20495;-75
2023/06/14 04:29:56;;;;;;;2.20;2.00;;;;;;;;;;4948214;28;20149;-76
2023/06/14 04:32:26;;;;;;;2.88;2.60;;;;;;;;;;4954597;28;20077;-75
2023/06/14 04:34:54;;;;;;;3.47;2.45;;;;;;;;;;4936798;28;20118;-76
2023/06/14 04:37:21;;;;;;;2.88;2.42;;;;;;;;;;4951262;28;20343;-76
2023/06/14 04:39:47;;;;;;;1.70;1.60;;;;;;;;;;4956138;28;20034;-74
2023/06/14 04:42:14;;;;;;;3.20;2.28;;;;;;;;;;4907645;28;20116;-75
2023/06/14 04:44:43;;;;;;;3.53;2.38;;;;;;;;;;4937674;28;20667;-75
2023/06/14 04:47:08;;;;;;;3.72;2.60;;;;;;;;;;4932221;28;20526;-75
2023/06/14 04:49:34;;;;;;;2.20;2.00;;;;;;;;;;4937383;28;20051;-75
2023/06/14 04:52:01;;;;;;;2.40;2.20;;;;;;;;;;4949234;28;20089;-75
2023/06/14 04:54:27;;;;;;;3.40;2.72;;;;;;;;;;4943090;28;20443;-74
2023/06/14 04:56:54;;;;;;;2.97;2.45;;;;;;;;;;4955120;28;20070;-75
2023/06/14 04:59:22;;;;;;;2.90;2.40;;;;;;;;;;4944243;28;20047;-75
2023/06/14 05:01:49;;;;;;;3.35;3.05;;;;;;;;;;4934071;28;20051;-74
2023/06/14 05:04:15;;;;;;;2.03;1.83;;;;;;;;;;4946292;28;20038;-74
2023/06/14 05:06:44;;;;;;;3.55;3.17;;;;;;;;;;4945156;28;20051;-75
2023/06/14 05:09:10;;;;;;;2.97;2.67;;;;;;;;;;4936645;28;20122;-74
2023/06/14 05:11:35;;;;;;;3.67;2.55;;;;;;;;;;4951609;28;20146;-75
2023/06/14 05:14:01;;;;;;;2.58;2.38;;;;;;;;;;4945422;28;20088;-74
2023/06/14 05:16:27;;;;;;;6.15;2.60;;;;;;;;;;4940202;28;20047;-75
2023/06/14 05:18:52;;;;;;;3.35;3.00;;;;;;;;;;4929037;28;20086;-75
2023/06/14 05:21:18;;;;;;;4.00;2.47;;;;;;;;;;4942830;28;20034;-75
2023/06/14 05:23:45;;;;;;;3.70;2.80;;;;;;;;;;4938756;28;20617;-75
2023/06/14 05:26:10;;;;;;;3.17;2.88;;;;;;;;;;4945194;28;20050;-75
2023/06/14 05:28:36;;;;;;;3.67;3.33;;;;;;;;;;4948845;28;20043;-76
2023/06/14 05:31:02;;;;;;;4.00;2.70;;;;;;;;;;4947175;28;20046;-76
2023/06/14 05:33:27;;;;;;;5.63;3.30;;;;;;;;;;4936085;28;20039;-76
2023/06/14 05:35:52;;;;;;;5.22;3.05;;;;;;;;;;4938202;28;20727;-75
2023/06/14 05:38:18;;;;;;;5.15;3.20;;;;;;;;;;4956016;28;20479;-75
2023/06/14 05:40:43;;;;;;;4.47;2.80;;;;;;;;;;4944480;28;20047;-74
2023/06/14 05:43:09;;;;;;;3.80;3.00;;;;;;;;;;4934407;28;20096;-75
2023/06/14 05:45:34;;;;;;;5.07;3.65;;;;;;;;;;4945831;28;20055;-75
2023/06/14 05:48:00;;;;;;;4.18;3.63;;;;;;;;;;4950758;28;20822;-75
2023/06/14 05:50:25;;;;;;;3.97;3.20;;;;;;;;;;4941250;28;20042;-75
2023/06/14 05:52:51;;;;;;;3.50;3.20;;;;;;;;;;4951065;28;20507;-74
2023/06/14 05:55:17;;;;;;;4.07;3.35;;;;;;;;;;4945837;28;20423;-75
2023/06/14 05:57:42;;;;;;;4.05;3.38;;;;;;;;;;4934093;28;20039;-75
2023/06/14 06:00:14;;;;;;;5.40;3.50;;;;;;;;;;4946141;28;20050;-75
2023/06/14 06:02:40;;;;;;;5.15;3.88;;;;;;;;;;4925618;28;20039;-75
2023/06/14 06:05:06;;;;;;;6.20;3.20;;;;;;;;;;4917330;28;20138;-75
2023/06/14 06:07:31;;;;;;;3.42;3.13;;;;;;;;;;4937971;28;20121;-75
2023/06/14 06:09:56;;;;;;;4.60;3.22;;;;;;;;;;4951387;28;20589;-75
2023/06/14 06:12:22;;;;;;;3.95;3.22;;;;;;;;;;4938476;28;20118;-75
2023/06/14 06:14:47;;;;;;;6.13;3.38;;;;;;;;;;4950706;28;20047;-75
2023/06/14 06:17:12;;;;;;;5.93;4.15;;;;;;;;;;4927957;28;20062;-75
2023/06/14 06:19:38;;;;;;;6.22;3.70;;;;;;;;;;4935654;28;20052;-75
2023/06/14 06:22:06;;;;;;;3.65;3.28;;;;;;;;;;4945025;28;20470;-75
2023/06/14 06:24:31;;;;;;;4.13;3.30;;;;;;;;;;4928295;28;20122;-75
2023/06/14 06:26:57;;;;;;;4.35;3.00;;;;;;;;;;4943676;28;20133;-75
2023/06/14 06:29:22;;;;;;;3.53;3.22;;;;;;;;;;4945140;28;20038;-75
2023/06/14 06:31:47;;;;;;;6.55;3.60;;;;;;;;;;4924557;28;20120;-75
2023/06/14 06:34:13;;;;;;;4.35;3.50;;;;;;;;;;4937024;28;20046;-75
2023/06/14 06:36:38;;;;;;;4.68;3.90;;;;;;;;;;4942258;28;20622;-75
2023/06/14 06:39:09;;;;;;;5.85;3.33;;;;;;;;;;4935171;28;20483;-75
2023/06/14 06:41:39;;;;;;;5.55;3.83;;;;;;;;;;4946051;28;20704;-75
2023/06/14 06:44:05;;;;;;;5.20;3.25;;;;;;;;;;4948402;28;20039;-75
2023/06/14 06:46:31;;;;;;;5.03;3.85;;;;;;;;;;4922102;28;20569;-75
2023/06/14 06:48:57;;;;;;;5.70;3.78;;;;;;;;;;4949415;28;20051;-75
2023/06/14 06:51:22;;;;;;;4.10;3.70;;;;;;;;;;4947573;28;20043;-74
2023/06/14 06:53:52;;;;;;;4.57;3.63;;;;;;;;;;4928373;28;20141;-75
2023/06/14 06:56:19;;;;;;;5.68;3.72;;;;;;;;;;4945755;28;20046;-75
2023/06/14 06:58:44;;;;;;;4.78;3.83;;;;;;;;;;4936983;28;20086;-75
2023/06/14 07:01:10;;;;;;;5.43;4.15;;;;;;;;;;4937953;28;20050;-75
2023/06/14 07:03:35;;;;;;;5.72;3.40;;;;;;;;;;4949714;28;20070;-75
2023/06/14 07:06:00;;;;;;;6.68;3.60;;;;;;;;;;4927816;28;20046;-75
2023/06/14 07:08:26;;;;;;;4.30;3.20;;;;;;;;;;4916317;28;20043;-75
2023/06/14 07:10:52;;;;;;;4.38;3.47;;;;;;;;;;4946282;28;20065;-75
2023/06/14 07:13:17;;;;;;;4.15;3.65;;;;;;;;;;4929766;28;20034;-75
2023/06/14 07:15:43;;;;;;;3.90;3.42;;;;;;;;;;4951865;28;20118;-75
2023/06/14 07:18:08;;;;;;;3.90;3.47;;;;;;;;;;4948306;28;20046;-75
2023/06/14 07:20:34;;;;;;;5.68;3.20;;;;;;;;;;4940229;28;20515;-75
2023/06/14 07:22:59;;;;;;;4.85;3.67;;;;;;;;;;4952597;28;20050;-74
2023/06/14 07:25:25;;;;;;;6.03;3.40;;;;;;;;;;4953374;28;20054;-75
2023/06/14 07:27:50;;;;;;;3.80;3.42;;;;;;;;;;4937435;28;20166;-75
2023/06/14 07:30:15;;;;;;;3.60;3.20;;;;;;;;;;4944165;28;20093;-74
2023/06/14 07:32:41;;;;;;;7.60;3.33;;;;;;;;;;4949984;28;20059;-75
2023/06/14 07:35:07;;;;;;;3.20;2.90;;;;;;;;;;4936453;28;20039;-75
2023/06/14 07:37:33;;;;;;;4.97;3.47;;;;;;;;;;4949567;28;20043;-75
2023/06/14 07:39:58;;;;;;;4.00;3.60;;;;;;;;;;4954232;28;20039;-76
2023/06/14 07:42:24;;;;;;;3.35;2.88;;;;;;;;;;4940958;28;20136;-75
2023/06/14 07:44:50;;;;;;;4.03;3.38;;;;;;;;;;4941815;28;20039;-75
2023/06/14 07:47:16;;;;;;;3.42;3.13;;;;;;;;;;4952633;28;20045;-75
2023/06/14 07:49:41;;;;;;;5.65;2.60;;;;;;;;;;4939248;28;20042;-74
2023/06/14 07:52:07;;;;;;;3.97;2.92;;;;;;;;;;4935955;28;20045;-75
2023/06/14 07:54:32;;;;;;;3.35;3.00;;;;;;;;;;4935048;28;20043;-75
2023/06/14 07:57:00;;;;;;;2.80;2.60;;;;;;;;;;4942412;28;20146;-75
2023/06/14 07:59:26;;;;;;;3.67;2.88;;;;;;;;;;4952444;28;20049;-75
2023/06/14 08:01:51;;;;;;;5.40;2.97;;;;;;;;;;4952956;28;20046;-74
2023/06/14 08:04:17;;;;;;;2.75;2.45;;;;;;;;;;4941653;28;20039;-75
2023/06/14 08:06:45;;;;;;;4.25;2.80;;;;;;;;;;4952411;28;20141;-75
2023/06/14 08:09:12;;;;;;;2.83;2.50;;;;;;;;;;4945997;28;20077;-76
2023/06/14 08:11:38;;;;;;;5.03;3.13;;;;;;;;;;4946360;28;20054;-75
2023/06/14 08:14:03;;;;;;;4.07;2.70;;;;;;;;;;4945812;28;20043;-75
2023/06/14 08:16:29;;;;;;;3.90;3.00;;;;;;;;;;4911355;28;20138;-75
2023/06/14 08:18:55;;;;;;;4.03;2.70;;;;;;;;;;4937161;28;20447;-76
2023/06/14 08:21:21;;;;;;;3.55;2.78;;;;;;;;;;4943251;28;20071;-76
2023/06/14 08:23:47;;;;;;;3.00;2.70;;;;;;;;;;4926376;28;20081;-75
2023/06/14 08:26:12;;;;;;;3.65;3.00;;;;;;;;;;4941656;28;20082;-75
2023/06/14 08:28:38;;;;;;;3.80;3.20;;;;;;;;;;4951845;28;20050;-75
2023/06/14 08:31:03;;;;;;;6.50;3.15;;;;;;;;;;4939793;28;20042;-74
2023/06/14 08:33:29;;;;;;;6.32;2.80;;;;;;;;;;4949828;28;20046;-74
2023/06/14 08:35:55;;;;;;;3.75;2.95;;;;;;;;;;4936558;28;20041;-75
2023/06/14 08:38:20;;;;;;;5.18;3.30;;;;;;;;;;4916996;28;20160;-76
2023/06/14 08:40:51;;;;;;;4.72;3.30;;;;;;;;;;4948773;28;20500;-75
2023/06/14 08:43:16;;;;;;;;;;;;;;;;;;4923967;28;20046;-75
2023/06/14 08:45:42;;;;;;;4.10;2.60;;;;;;;;;;4924337;28;20375;-75
2023/06/14 08:48:07;;;;;;;4.43;3.38;;;;;;;;;;4929486;28;20049;-75
2023/06/14 08:50:36;;;;;;;3.50;3.20;;;;;;;;;;4949736;28;20034;-74
2023/06/14 08:53:02;;;;;;;2.70;2.38;;;;;;;;;;4918587;28;20055;-76
2023/06/14 08:55:29;;;;;;;4.15;3.05;;;;;;;;;;4948885;28;20046;-75
2023/06/14 08:57:59;;;;;;;2.63;2.42;;;;;;;;;;4939161;28;20046;-75
2023/06/14 09:00:27;;;;;;;5.63;3.38;;;;;;;;;;4954567;28;20578;-75
2023/06/14 09:02:57;;;;;;;3.20;2.92;;;;;;;;;;4948491;28;20150;-75
2023/06/14 09:05:26;;;;;;;3.50;3.20;;;;;;;;;;4941691;28;20046;-76
2023/06/14 09:07:54;;;;;;;2.80;2.55;;;;;;;;;;4955168;28;20077;-75
2023/06/14 09:10:20;;;;;;;4.03;3.40;;;;;;;;;;4939796;28;20526;-76
2023/06/14 09:12:47;;;;;;;4.85;3.03;;;;;;;;;;4934601;28;20038;-76
2023/06/14 09:15:14;;;;;;;4.30;3.20;;;;;;;;;;4950491;28;20043;-76
2023/06/14 09:17:40;;;;;;;3.45;3.15;;;;;;;;;;4923424;28;20050;-76
2023/06/14 09:20:08;;;;;;;4.32;3.13;;;;;;;;;;4943680;28;20054;-76
2023/06/14 09:22:35;;;;;;;3.67;2.92;;;;;;;;;;4926734;28;20508;-76
2023/06/14 09:25:03;;;;;;;4.22;3.08;;;;;;;;;;4925967;28;20077;-76
2023/06/14 09:27:29;;;;;;;3.20;2.90;;;;;;;;;;4931291;28;20035;-76
2023/06/14 09:29:55;;;;;;;6.30;3.28;;;;;;;;;;4937770;28;20034;-76
2023/06/14 09:32:23;;;;;;;3.15;2.78;;;;;;;;;;4930917;28;20050;-76
2023/06/14 09:34:49;;;;;;;4.28;3.08;;;;;;;;;;4950554;28;20039;-76
2023/06/14 09:37:30;;;;;;;3.40;3.10;;;;;;;;;;4923338;28;20038;-76
2023/06/14 09:39:56;;;;;;;5.72;3.63;;;;;;;;;;4946747;28;20773;-76
2023/06/14 09:42:25;;;;;;;5.53;3.30;;;;;;;;;;4950290;28;20762;-75
2023/06/14 09:44:52;;;;;;;6.82;3.92;;;;;;;;;;4923003;28;20055;-75
2023/06/14 09:47:18;;;;;;;4.95;3.63;;;;;;;;;;4952132;28;20039;-76
2023/06/14 09:49:43;;;;;;;6.93;3.55;;;;;;;;;;4923117;28;20097;-76
2023/06/14 09:52:17;;;;;;;8.00;3.60;;;;;;;;;;4948883;28;20502;-76
2023/06/14 09:54:47;;;;;;;5.82;3.50;;;;;;;;;;5011428;22;20421;-77
2023/06/14 09:57:14;;;;;;;7.03;3.45;;;;;;;;;;4954669;28;20038;-77
2023/06/14 09:59:44;;;;;;;5.22;3.58;;;;;;;;;;4965517;28;20450;-77
2023/06/14 10:02:15;;;;;;;3.55;3.08;;;;;;;;;;4962065;28;20049;-77
2023/06/14 10:04:50;;;;;;;6.93;3.42;;;;;;;;;;4935619;28;20051;-77
2023/06/14 10:07:20;;;;;;;4.35;3.13;;;;;;;;;;4947104;28;20510;-77
2023/06/14 10:09:49;;;;;;;4.78;2.85;;;;;;;;;;4937454;28;20120;-77
2023/06/14 10:12:20;;;;;;;5.10;3.40;;;;;;;;;;4937933;28;20397;-77
2023/06/14 10:14:51;;;;;;;3.33;3.03;;;;;;;;;;4937336;28;20582;-77
2023/06/14 10:17:48;;;;;;;3.83;3.17;;;;;;;;;;4930512;28;20054;-77
2023/06/14 10:20:40;;;;;;;4.95;3.25;;;;;;;;;;4936803;28;20447;-77
2023/06/14 10:23:21;;;;;;;3.30;3.00;;;;;;;;;;4943640;28;20074;-77
2023/06/14 10:25:50;;;;;;;4.53;3.08;;;;;;;;;;4949459;28;20051;-77
2023/06/14 10:28:18;;;;;;;3.23;2.93;;;;;;;;;;4949363;28;20054;-77
2023/06/14 10:31:13;;;;;;;4.82;3.00;;;;;;;;;;4936996;28;20769;-77
2023/06/14 10:33:57;;;;;;;3.20;2.90;;;;;;;;;;4903244;28;20094;-77
2023/06/14 10:36:22;;;;;;;2.58;2.10;;;;;;;;;;4921322;28;20043;-77
2023/06/14 10:39:07;;;;;;;3.58;3.20;;;;;;;;;;4928958;28;20470;-77
2023/06/14 10:41:39;;;;;;;4.55;3.20;;;;;;;;;;4948290;28;20466;-77
2023/06/14 10:44:14;;;;;;;4.55;3.35;;;;;;;;;;4926295;28;20601;-77
2023/06/14 10:46:40;;;;;;;2.92;2.72;;;;;;;;;;4952364;28;20606;-77
2023/06/14 10:49:06;;;;;;;3.60;3.03;;;;;;;;;;4941570;28;20121;-78
2023/06/14 10:51:46;;;;;;;3.05;2.60;;;;;;;;;;4931140;28;20386;-77
2023/06/14 10:54:20;;;;;;;2.72;2.50;;;;;;;;;;4938825;28;20102;-77
2023/06/14 10:56:48;;;;;;;2.95;2.72;;;;;;;;;;4956509;28;20552;-77
2023/06/14 10:59:14;;;;;;;3.08;2.67;;;;;;;;;;4951794;28;20031;-77
2023/06/14 11:01:58;;;;;;;3.67;2.92;;;;;;;;;;4937510;28;20114;-77
2023/06/14 11:04:46;;;;;;;2.83;2.63;;;;;;;;;;4943251;28;20431;-77
2023/06/14 11:07:27;;;;;;;3.20;2.90;;;;;;;;;;4929003;28;20193;-77
2023/06/14 11:10:19;;;;;;;2.72;2.53;;;;;;;;;;4943327;28;20057;-77
2023/06/14 11:12:47;;;;;;;2.97;2.67;;;;;;;;;;4953325;28;20109;-77
2023/06/14 11:15:13;;;;;;;2.95;2.50;;;;;;;;;;4940387;28;20043;-77
2023/06/14 11:17:38;;;;;;;2.75;2.55;;;;;;;;;;4956361;28;20097;-77
2023/06/14 11:20:08;;;;;;;2.70;2.50;;;;;;;;;;4951715;28;20042;-77
2023/06/14 11:22:44;;;;;;;2.95;2.50;;;;;;;;;;4906558;28;20048;-77
2023/06/14 11:25:11;;;;;;;2.92;2.53;;;;;;;;;;4937233;28;20034;-77
2023/06/14 11:27:36;;;;;;;4.05;2.72;;;;;;;;;;4941583;28;20085;-78
2023/06/14 11:30:02;;;;;;;2.80;2.60;;;;;;;;;;4949224;28;20035;-77
2023/06/14 11:32:27;;;;;;;3.08;2.88;;;;;;;;;;4950829;28;20121;-77
2023/06/14 11:34:53;;;;;;;4.32;2.90;;;;;;;;;;4942822;28;20039;-77
2023/06/14 11:37:19;;;;;;;2.70;2.33;;;;;;;;;;4938355;28;20053;-77
2023/06/14 11:39:45;;;;;;;3.13;2.80;;;;;;;;;;4956296;28;20054;-77
2023/06/14 11:42:15;;;;;;;3.05;2.75;;;;;;;;;;4944871;28;20073;-77
2023/06/14 11:44:40;;;;;;;2.88;2.40;;;;;;;;;;4942267;28;20216;-77
2023/06/14 11:47:06;;;;;;;2.90;2.60;;;;;;;;;;4938994;28;20055;-77
2023/06/14 11:49:38;;;;;;;3.65;2.60;;;;;;;;;;4943708;28;20035;-77
2023/06/14 11:52:04;;;;;;;3.85;2.53;;;;;;;;;;4954651;28;20053;-77
2023/06/14 11:54:29;;;;;;;2.55;2.35;;;;;;;;;;4952594;28;20035;-78
2023/06/14 11:56:55;;;;;;;2.53;2.33;;;;;;;;;;4945527;28;22365;-77
2023/06/14 11:59:20;;;;;;;3.33;2.60;;;;;;;;;;4948205;28;20030;-77
2023/06/14 12:01:47;;;;;;;5.25;2.35;;;;;;;;;;4939522;28;20047;-77
2023/06/14 12:04:13;;;;;;;3.45;2.30;;;;;;;;;;4951767;28;20046;-77
2023/06/14 12:06:39;;;;;;;2.97;2.50;;;;;;;;;;4947341;28;20050;-77
2023/06/14 12:09:07;;;;;;;3.13;2.20;;;;;;;;;;4936766;28;20499;-77
2023/06/14 12:11:35;;;;;;;2.78;2.30;;;;;;;;;;4947786;28;20030;-77
2023/06/14 12:14:01;;;;;;;2.17;1.98;;;;;;;;;;4958642;28;20395;-77
2023/06/14 12:16:32;;;;;;;3.95;2.00;;;;;;;;;;4940481;28;20051;-77
2023/06/14 12:19:02;;;;;;;4.95;2.50;;;;;;;;;;4944467;28;20050;-77
2023/06/14 12:21:28;;;;;;;2.47;2.28;;;;;;;;;;4946828;28;20027;-77
2023/06/14 12:23:54;;;;;;;5.60;2.60;;;;;;;;;;4955203;28;20041;-77
2023/06/14 12:26:20;;;;;;;2.97;2.10;;;;;;;;;;4958542;28;20440;-77
2023/06/14 12:28:47;;;;;;;2.50;2.20;;;;;;;;;;4945757;28;20101;-77
2023/06/14 12:31:14;;;;;;;2.55;2.33;;;;;;;;;;4949053;28;20519;-77
2023/06/14 12:33:40;;;;;;;2.58;2.05;;;;;;;;;;4940341;28;20514;-77
2023/06/14 12:36:09;;;;;;;2.55;2.35;;;;;;;;;;4915515;28;20307;-77
2023/06/14 12:38:35;;;;;;;2.53;1.88;;;;;;;;;;4947997;28;20050;-77
2023/06/14 12:41:01;;;;;;;2.45;2.25;;;;;;;;;;4948588;28;20515;-76
2023/06/14 12:43:27;;;;;;;2.47;1.90;;;;;;;;;;4941296;28;20036;-77
2023/06/14 12:45:52;;;;;;;1.85;1.75;;;;;;;;;;4932111;28;20042;-77
2023/06/14 12:48:18;;;;;;;3.63;1.70;;;;;;;;;;4950652;28;20056;-77
2023/06/14 12:50:43;;;;;;;2.53;1.80;;;;;;;;;;4926514;28;20397;-77
2023/06/14 12:53:08;;;;;;;1.85;1.60;;;;;;;;;;4931580;28;20045;-77
2023/06/14 12:55:34;;;;;;;2.03;1.83;;;;;;;;;;4938917;28;20126;-77
2023/06/14 12:57:59;;;;;;;2.45;1.55;;;;;;;;;;4951988;28;20070;-77
2023/06/14 13:00:30;;;;;;;1.92;1.83;;;;;;;;;;4953869;28;20058;-77
2023/06/14 13:02:55;;;;;;;;;;;;;;;;;;4941337;28;20070;-77
2023/06/14 13:05:20;;;;;;;1.50;1.40;;;;;;;;;;4936563;28;20024;-77
2023/06/14 13:07:46;;;;;;;1.95;1.77;;;;;;;;;;4949194;28;20042;-77
2023/06/14 13:10:11;;;;;;;2.35;1.70;;;;;;;;;;4939192;28;20479;-77
2023/06/14 13:12:37;;;;;;;2.20;2.00;;;;;;;;;;4954075;28;20057;-77
2023/06/14 13:15:02;;;;;;;3.08;1.88;;;;;;;;;;4947610;28;20354;-77
2023/06/14 13:17:28;;;;;;;2.13;1.60;;;;;;;;;;4941064;28;20133;-77
2023/06/14 13:19:53;;;;;;;1.85;1.75;;;;;;;;;;4952477;28;20163;-77
2023/06/14 13:22:19;;;;;;;1.70;1.60;;;;;;;;;;4950574;28;20499;-77
2023/06/14 13:24:45;;;;;;;2.33;1.77;;;;;;;;;;4938859;28;20042;-77
2023/06/14 13:27:10;;;;;;;2.10;1.75;;;;;;;;;;4934150;28;20034;-77
2023/06/14 13:29:36;;;;;;;2.22;1.88;;;;;;;;;;4951617;28;20050;-77
2023/06/14 13:32:02;;;;;;;1.77;1.60;;;;;;;;;;4944210;28;20461;-77
2023/06/14 13:34:28;;;;;;;4.10;1.98;;;;;;;;;;4947372;28;20049;-78
2023/06/14 13:36:53;;;;;;;4.32;1.98;;;;;;;;;;4947866;28;20046;-77
2023/06/14 13:39:19;;;;;;;2.05;1.88;;;;;;;;;;4937175;28;20443;-77
2023/06/14 13:41:44;;;;;;;2.17;1.80;;;;;;;;;;4949791;28;20129;-77
2023/06/14 13:44:13;;;;;;;2.83;1.88;;;;;;;;;;4958711;28;20438;-77
2023/06/14 13:46:39;;;;;;;1.90;1.80;;;;;;;;;;4937823;28;20049;-77
2023/06/14 13:49:05;;;;;;;3.35;2.17;;;;;;;;;;4948767;28;20121;-77
2023/06/14 13:51:30;;;;;;;3.13;2.17;;;;;;;;;;4939793;28;20426;-77
2023/06/14 13:53:55;;;;;;;2.50;1.92;;;;;;;;;;4941641;28;20054;-77
2023/06/14 13:56:22;;;;;;;2.58;2.10;;;;;;;;;;4945651;28;20051;-77
2023/06/14 13:58:48;;;;;;;2.67;2.10;;;;;;;;;;4938994;28;20031;-77
2023/06/14 14:01:13;;;;;;;2.13;2.03;;;;;;;;;;4918417;28;20051;-77
2023/06/14 14:03:39;;;;;;;2.90;1.98;;;;;;;;;;4930024;28;20129;-77
2023/06/14 14:06:05;;;;;;;2.95;2.13;;;;;;;;;;4938967;28;20067;-77
2023/06/14 14:08:31;;;;;;;3.08;2.30;;;;;;;;;;4948711;28;20050;-77
2023/06/14 14:10:57;;;;;;;3.22;2.45;;;;;;;;;;4954563;28;20097;-77
2023/06/14 14:13:22;;;;;;;2.88;2.30;;;;;;;;;;4941792;28;20039;-78
2023/06/14 14:15:49;;;;;;;3.28;2.25;;;;;;;;;;4931344;28;20531;-77
2023/06/14 14:18:15;;;;;;;2.28;2.08;;;;;;;;;;4937932;28;20499;-77
2023/06/14 14:20:40;;;;;;;3.65;2.35;;;;;;;;;;4940138;28;20141;-77
2023/06/14 14:23:06;;;;;;;2.47;2.28;;;;;;;;;;4945049;28;20043;-77
2023/06/14 14:25:31;;;;;;;7.05;2.88;;;;;;;;;;4955246;28;20582;-77
2023/06/14 14:27:56;;;;;;;3.63;2.53;;;;;;;;;;4915157;28;20124;-77
2023/06/14 14:30:23;;;;;;;3.03;2.45;;;;;;;;;;4942590;28;20042;-78
2023/06/14 14:32:50;;;;;;;4.00;2.03;;;;;;;;;;4943309;28;20047;-77
2023/06/14 14:35:16;;;;;;;3.83;2.53;;;;;;;;;;4922357;28;20092;-77
2023/06/14 14:37:42;;;;;;;3.53;2.80;;;;;;;;;;4932170;28;20113;-77
2023/06/14 14:40:09;;;;;;;5.32;2.70;;;;;;;;;;4950869;28;20038;-77
2023/06/14 14:42:35;;;;;;;2.70;2.50;;;;;;;;;;4922418;28;20416;-77